createdAt,value
2023-01-19T00:00:37.053Z,29.05
2023-01-19T00:03:04.681Z,30.25
2023-01-19T00:05:31.928Z,26.85
2023-01-19T00:08:14.639Z,31.35
2023-01-19T00:10:52.147Z,28.75
2023-01-19T00:13:21.515Z,30.42
2023-01-19T00:15:50.538Z,26.65
2023-01-19T00:18:17.237Z,30.73
2023-01-19T00:20:48.816Z,32.65
2023-01-19T00:23:16.309Z,31.90
2023-01-19T00:25:47.200Z,35.05
2023-01-19T00:28:16.126Z,32.35
2023-01-19T00:30:43.645Z,35.72
2023-01-19T00:33:16.171Z,29.85
2023-01-19T00:35:45.402Z,38.95
2023-01-19T00:38:12.547Z,30.90
2023-01-19T00:40:39.298Z,34.70
2023-01-19T00:43:05.922Z,33.78
2023-01-19T00:45:33.412Z,32.75
2023-01-19T00:48:00.094Z,33.97
2023-01-19T00:50:28.800Z,32.55
2023-01-19T00:53:01.232Z,28.50
2023-01-19T00:55:28.648Z,29.33
2023-01-19T00:57:55.342Z,30.35
2023-01-19T01:00:22.858Z,26.48
2023-01-19T01:02:52.352Z,30.00
2023-01-19T01:05:22.384Z,28.45
2023-01-19T01:07:50.517Z,29.52
2023-01-19T01:10:23.688Z,36.55
2023-01-19T01:12:55.169Z,26.23
2023-01-19T01:15:27.004Z,26.58
2023-01-19T01:17:53.987Z,30.52
2023-01-19T01:20:27.817Z,34.83
2023-01-19T01:22:57.424Z,31.13
2023-01-19T01:25:26.194Z,29.35
2023-01-19T01:27:53.868Z,34.28
2023-01-19T01:30:21.446Z,31.10
2023-01-19T01:32:48.969Z,26.65
2023-01-19T01:35:18.833Z,31.50
2023-01-19T01:37:45.461Z,39.10
2023-01-19T01:40:16.398Z,35.28
2023-01-19T01:42:43.602Z,34.90
2023-01-19T01:45:36.343Z,31.98
2023-01-19T01:48:27.190Z,34.42
2023-01-19T01:51:18.629Z,35.00
2023-01-19T01:54:13.018Z,35.83
2023-01-19T01:56:46.663Z,32.15
2023-01-19T02:02:16.871Z,31.90
2023-01-19T02:04:50.383Z,35.22
2023-01-19T02:07:45.273Z,33.78
2023-01-19T02:10:30.608Z,33.25
2023-01-19T02:13:16.646Z,29.40
2023-01-19T02:15:43.288Z,32.40
2023-01-19T02:18:10.850Z,34.15
2023-01-19T02:20:43.038Z,33.60
2023-01-19T02:23:17.262Z,32.72
2023-01-19T02:25:44.288Z,30.17
2023-01-19T02:28:11.751Z,38.35
2023-01-19T02:30:41.120Z,30.40
2023-01-19T02:33:07.817Z,32.72
2023-01-19T02:35:39.505Z,30.30
2023-01-19T02:38:07.852Z,32.78
2023-01-19T02:40:38.491Z,34.58
2023-01-19T02:43:06.361Z,31.55
2023-01-19T02:45:33.052Z,35.75
2023-01-19T02:47:59.685Z,33.20
2023-01-19T02:50:49.205Z,28.40
2023-01-19T02:53:37.473Z,28.70
2023-01-19T02:56:39.504Z,30.98
2023-01-19T02:59:32.758Z,30.48
2023-01-19T03:02:08.988Z,27.92
2023-01-19T03:05:04.940Z,26.55
2023-01-19T03:07:52.940Z,31.23
2023-01-19T03:10:36.221Z,31.88
2023-01-19T03:13:05.830Z,32.72
2023-01-19T03:15:41.343Z,30.70
2023-01-19T03:18:10.596Z,26.20
2023-01-19T03:20:40.089Z,29.02
2023-01-19T03:23:11.276Z,27.17
2023-01-19T03:25:42.458Z,30.65
2023-01-19T03:28:14.205Z,32.58
2023-01-19T03:30:46.537Z,27.98
2023-01-19T03:33:41.856Z,30.10
2023-01-19T03:36:16.571Z,27.33
2023-01-19T03:38:46.116Z,27.88
2023-01-19T03:41:17.354Z,27.25
2023-01-19T03:43:46.091Z,27.30
2023-01-19T03:46:17.349Z,32.47
2023-01-19T03:48:47.735Z,32.63
2023-01-19T03:51:14.931Z,31.77
2023-01-19T03:53:41.944Z,28.60
2023-01-19T03:56:27.101Z,29.77
2023-01-19T03:58:56.989Z,33.00
2023-01-19T04:01:24.907Z,32.25
2023-01-19T04:03:55.031Z,31.75
2023-01-19T04:06:24.357Z,29.67
2023-01-19T04:08:51.881Z,33.42
2023-01-19T04:11:18.911Z,32.55
2023-01-19T04:13:45.551Z,31.58
2023-01-19T04:16:20.489Z,33.08
2023-01-19T04:18:47.928Z,31.77
2023-01-19T04:21:16.799Z,35.58
2023-01-19T04:23:44.396Z,32.53
2023-01-19T04:26:13.657Z,33.85
2023-01-19T04:28:40.445Z,35.65
2023-01-19T04:31:07.717Z,30.15
2023-01-19T04:33:37.082Z,32.40
2023-01-19T04:36:04.161Z,32.35
2023-01-19T04:38:35.367Z,34.13
2023-01-19T04:41:01.993Z,30.40
2023-01-19T04:43:31.309Z,35.58
2023-01-19T04:45:58.663Z,28.02
2023-01-19T04:48:25.509Z,31.00
2023-01-19T04:50:54.714Z,32.65
2023-01-19T04:53:21.466Z,32.30
2023-01-19T04:55:52.405Z,34.85
2023-01-19T04:58:19.067Z,44.20
2023-01-19T05:00:45.846Z,36.63
2023-01-19T05:03:15.085Z,34.75
2023-01-19T05:05:41.755Z,36.78
2023-01-19T05:08:08.491Z,36.17
2023-01-19T05:10:36.520Z,33.80
2023-01-19T05:13:05.550Z,38.22
2023-01-19T05:15:32.221Z,39.53
2023-01-19T05:18:03.472Z,34.53
2023-01-19T05:20:30.170Z,33.00
2023-01-19T05:22:59.631Z,40.20
2023-01-19T05:25:26.456Z,37.10
2023-01-19T05:27:53.147Z,38.50
2023-01-19T05:30:19.848Z,36.28
2023-01-19T05:32:47.023Z,34.78
2023-01-19T05:35:18.184Z,32.30
2023-01-19T05:37:48.760Z,33.42
2023-01-19T05:40:15.754Z,36.80
2023-01-19T05:42:44.930Z,34.83
2023-01-19T05:45:12.465Z,34.20
2023-01-19T05:47:39.925Z,33.17
2023-01-19T05:50:07.520Z,37.40
2023-01-19T05:52:34.135Z,32.83
2023-01-19T05:55:00.749Z,34.42
2023-01-19T05:57:27.381Z,36.92
2023-01-19T05:59:54.060Z,34.45
2023-01-19T06:02:28.550Z,36.90
2023-01-19T06:04:56.045Z,35.17
2023-01-19T06:07:24.411Z,34.55
2023-01-19T06:09:53.968Z,33.00
2023-01-19T06:12:20.608Z,30.98
2023-01-19T06:14:47.267Z,37.97
2023-01-19T06:17:13.903Z,36.03
2023-01-19T06:19:40.822Z,37.88
2023-01-19T06:22:07.999Z,41.00
2023-01-19T06:24:34.759Z,33.67
2023-01-19T06:27:01.430Z,34.17
2023-01-19T06:29:29.405Z,47.03
2023-01-19T06:31:56.453Z,36.72
2023-01-19T06:34:27.028Z,39.67
2023-01-19T06:36:53.847Z,31.83
2023-01-19T06:39:20.594Z,39.65
2023-01-19T06:41:47.463Z,37.22
2023-01-19T06:44:14.257Z,40.70
2023-01-19T06:46:43.388Z,35.97
2023-01-19T06:49:10.090Z,36.70
2023-01-19T06:51:36.742Z,35.65
2023-01-19T06:54:03.492Z,39.10
2023-01-19T06:56:35.127Z,39.85
2023-01-19T06:59:01.903Z,38.13
2023-01-19T07:01:28.620Z,37.33
2023-01-19T07:03:55.330Z,38.55
2023-01-19T07:06:22.128Z,41.60
2023-01-19T07:08:48.844Z,36.65
2023-01-19T07:11:26.012Z,38.45
2023-01-19T07:13:57.482Z,42.83
2023-01-19T07:16:24.566Z,41.20
2023-01-19T07:18:53.961Z,38.90
2023-01-19T07:21:21.698Z,38.50
2023-01-19T07:23:49.788Z,39.35
2023-01-19T07:26:21.346Z,42.63
2023-01-19T07:28:48.904Z,35.42
2023-01-19T07:31:16.029Z,43.53
2023-01-19T07:33:42.841Z,36.45
2023-01-19T07:36:10.005Z,33.67
2023-01-19T07:38:36.862Z,30.75
2023-01-19T07:41:09.148Z,39.97
2023-01-19T07:43:38.038Z,35.65
2023-01-19T07:46:08.327Z,36.58
2023-01-19T07:48:37.374Z,36.42
2023-01-19T07:51:10.958Z,34.75
2023-01-19T07:53:39.942Z,41.35
2023-01-19T07:56:09.406Z,35.17
2023-01-19T07:58:36.095Z,36.97
2023-01-19T08:01:07.888Z,37.80
2023-01-19T08:03:39.465Z,37.88
2023-01-19T08:06:07.225Z,38.63
2023-01-19T08:08:34.331Z,31.58
2023-01-19T08:11:01.124Z,37.10
2023-01-19T08:13:30.507Z,35.58
2023-01-19T08:15:57.620Z,35.25
2023-01-19T08:18:26.514Z,35.83
2023-01-19T08:20:53.429Z,35.35
2023-01-19T08:23:22.592Z,34.40
2023-01-19T08:25:49.334Z,29.73
2023-01-19T08:28:17.119Z,37.45
2023-01-19T08:30:53.999Z,32.50
2023-01-19T08:33:23.104Z,34.00
2023-01-19T08:35:52.396Z,34.25
2023-01-19T08:38:19.718Z,36.88
2023-01-19T08:40:46.422Z,35.83
2023-01-19T08:43:16.027Z,30.23
2023-01-19T08:45:49.109Z,29.90
2023-01-19T08:48:17.821Z,32.25
2023-01-19T08:50:47.440Z,29.05
2023-01-19T08:53:14.830Z,32.35
2023-01-19T08:55:44.245Z,29.35
2023-01-19T08:58:11.045Z,29.90
2023-01-19T09:00:39.292Z,35.85
2023-01-19T09:03:07.609Z,31.50
2023-01-19T09:05:37.394Z,31.33
2023-01-19T09:08:08.080Z,28.55
2023-01-19T09:10:40.552Z,25.15
2023-01-19T09:13:11.453Z,29.80
2023-01-19T09:15:39.581Z,30.10
2023-01-19T09:18:10.282Z,26.88
2023-01-19T09:20:39.075Z,28.60
2023-01-19T09:23:06.403Z,26.20
2023-01-19T09:25:33.232Z,27.63
2023-01-19T09:28:00.657Z,30.58
2023-01-19T09:30:27.955Z,29.02
2023-01-19T09:32:55.105Z,27.13
2023-01-19T09:35:21.828Z,28.73
2023-01-19T09:37:48.753Z,31.00
2023-01-19T09:40:18.081Z,29.77
2023-01-19T09:42:57.859Z,27.88
2023-01-19T09:45:56.966Z,27.15
2023-01-19T09:48:29.930Z,26.48
2023-01-19T09:50:59.615Z,26.38
2023-01-19T09:53:43.415Z,25.05
2023-01-19T09:56:17.521Z,27.77
2023-01-19T09:58:47.042Z,25.90
2023-01-19T10:01:35.162Z,23.65
2023-01-19T10:04:26.286Z,22.30
2023-01-19T10:06:59.795Z,28.55
2023-01-19T10:09:47.721Z,25.25
2023-01-19T10:12:40.148Z,20.33
2023-01-19T10:15:25.295Z,23.42
2023-01-19T10:18:17.708Z,26.50
2023-01-19T10:20:54.757Z,30.02
2023-01-19T10:23:58.638Z,27.98
2023-01-19T10:26:33.331Z,23.45
2023-01-19T10:29:26.263Z,28.35
2023-01-19T10:32:04.109Z,30.50
2023-01-19T10:34:30.805Z,31.20
2023-01-19T10:37:04.784Z,27.25
2023-01-19T10:39:31.832Z,30.23
2023-01-19T10:42:02.345Z,29.08
2023-01-19T10:44:34.992Z,32.80
2023-01-19T10:47:02.214Z,31.50
2023-01-19T10:49:35.689Z,27.33
2023-01-19T10:52:06.142Z,29.33
2023-01-19T10:54:36.299Z,24.85
2023-01-19T10:57:09.108Z,27.50
2023-01-19T10:59:38.688Z,23.67
2023-01-19T11:02:22.772Z,27.50
2023-01-19T11:04:53.893Z,26.88
2023-01-19T11:07:23.675Z,29.73
2023-01-19T11:10:17.837Z,29.70
2023-01-19T11:15:34.705Z,22.17
2023-01-19T11:18:07.919Z,27.60
2023-01-19T11:20:50.752Z,27.65
2023-01-19T11:23:42.044Z,29.23
2023-01-19T11:26:24.340Z,27.65
2023-01-19T11:28:54.653Z,24.63
2023-01-19T11:31:27.576Z,26.60
2023-01-19T11:34:06.320Z,27.55
2023-01-19T11:36:36.558Z,27.27
2023-01-19T11:39:23.531Z,26.98
2023-01-19T11:41:56.128Z,33.63
2023-01-19T11:44:31.897Z,31.00
2023-01-19T11:47:12.398Z,31.35
2023-01-19T11:49:47.850Z,26.02
2023-01-19T11:52:36.468Z,23.40
2023-01-19T11:55:19.951Z,23.30
2023-01-19T11:57:54.209Z,22.08
2023-01-19T12:00:40.406Z,21.45
2023-01-19T12:03:34.725Z,18.45
2023-01-19T12:08:39.384Z,24.95
2023-01-19T12:11:08.770Z,24.42
2023-01-19T12:13:36.303Z,30.25
2023-01-19T12:16:05.776Z,26.98
2023-01-19T12:18:46.850Z,24.27
2023-01-19T12:21:13.598Z,26.27
2023-01-19T12:23:56.498Z,24.08
2023-01-19T12:26:30.637Z,27.30
2023-01-19T12:29:31.633Z,24.27
2023-01-19T12:32:13.288Z,27.83
2023-01-19T12:34:44.043Z,26.60
2023-01-19T12:37:35.867Z,24.75
2023-01-19T12:40:31.318Z,22.63
2023-01-19T12:43:04.040Z,27.80
2023-01-19T12:45:36.211Z,24.10
2023-01-19T12:48:05.028Z,21.73
2023-01-19T12:50:37.863Z,23.10
2023-01-19T12:53:15.866Z,24.80
2023-01-19T12:55:46.656Z,17.10
2023-01-19T12:58:21.489Z,15.93
2023-01-19T13:00:50.311Z,13.68
2023-01-19T13:03:17.113Z,12.35
2023-01-19T13:05:43.950Z,16.55
2023-01-19T13:08:14.202Z,15.23
2023-01-19T13:11:02.819Z,14.10
2023-01-19T13:14:07.674Z,12.57
2023-01-19T13:16:49.733Z,14.48
2023-01-19T13:19:21.766Z,17.60
2023-01-19T13:21:49.589Z,16.63
2023-01-19T13:24:22.311Z,19.42
2023-01-19T13:26:51.957Z,12.02
2023-01-19T13:29:33.774Z,13.27
2023-01-19T13:32:04.266Z,14.50
2023-01-19T13:34:44.024Z,12.13
2023-01-19T13:37:23.420Z,11.73
2023-01-19T13:39:53.355Z,8.60
2023-01-19T13:42:39.941Z,12.70
2023-01-19T13:45:37.858Z,10.98
2023-01-19T13:48:15.726Z,12.40
2023-01-19T13:50:44.471Z,10.13
2023-01-19T13:53:23.555Z,8.23
2023-01-19T13:56:17.186Z,10.18
2023-01-19T13:58:56.782Z,12.75
2023-01-19T14:01:29.410Z,11.70
2023-01-19T14:03:57.581Z,12.55
2023-01-19T14:06:34.082Z,9.45
2023-01-19T14:09:16.637Z,13.63
2023-01-19T14:12:03.780Z,13.50
2023-01-19T14:14:30.588Z,12.25
2023-01-19T14:16:57.267Z,13.10
2023-01-19T14:19:24.294Z,10.02
2023-01-19T14:22:03.857Z,12.02
2023-01-19T14:24:33.096Z,11.90
2023-01-19T14:27:19.207Z,16.73
2023-01-19T14:29:48.329Z,12.45
2023-01-19T14:32:16.879Z,12.98
2023-01-19T14:35:06.678Z,10.32
2023-01-19T14:37:37.091Z,9.20
2023-01-19T14:40:21.055Z,12.50
2023-01-19T14:42:57.984Z,9.10
2023-01-19T14:45:39.286Z,13.65
2023-01-19T14:48:11.914Z,15.02
2023-01-19T14:50:51.046Z,9.13
2023-01-19T14:53:29.792Z,10.35
2023-01-19T14:56:05.136Z,11.35
2023-01-19T14:58:34.056Z,10.38
2023-01-19T15:01:01.065Z,8.57
2023-01-19T15:03:43.474Z,10.75
2023-01-19T15:06:19.973Z,11.68
2023-01-19T15:08:48.770Z,9.80
2023-01-19T15:11:32.780Z,8.90
2023-01-19T15:14:05.399Z,8.63
2023-01-19T15:16:50.514Z,10.80
2023-01-19T15:19:17.886Z,10.35
2023-01-19T15:21:46.759Z,6.78
2023-01-19T15:24:15.894Z,8.80
2023-01-19T15:26:46.468Z,9.25
2023-01-19T15:29:24.948Z,8.80
2023-01-19T15:31:52.596Z,7.43
2023-01-19T15:34:21.574Z,8.77
2023-01-19T15:36:50.597Z,14.80
2023-01-19T15:39:17.331Z,9.45
2023-01-19T15:41:44.079Z,8.25
2023-01-19T15:44:11.131Z,7.68
2023-01-19T15:46:38.093Z,10.52
2023-01-19T15:49:07.667Z,13.18
2023-01-19T15:51:34.470Z,9.93
2023-01-19T15:54:01.325Z,9.20
2023-01-19T15:56:31.752Z,7.60
2023-01-19T15:58:59.191Z,6.35
2023-01-19T16:01:35.006Z,8.63
2023-01-19T16:04:04.469Z,8.35
2023-01-19T16:06:32.284Z,8.98
2023-01-19T16:09:01.016Z,11.65
2023-01-19T16:11:32.014Z,10.82
2023-01-19T16:13:58.846Z,9.82
2023-01-19T16:16:31.394Z,9.48
2023-01-19T16:19:03.094Z,11.07
2023-01-19T16:21:29.816Z,9.32
2023-01-19T16:23:56.615Z,12.98
2023-01-19T16:26:26.537Z,13.40
2023-01-19T16:28:56.998Z,8.52
2023-01-19T16:31:26.691Z,16.98
2023-01-19T16:33:53.497Z,9.93
2023-01-19T16:36:28.972Z,10.50
2023-01-19T16:39:00.069Z,13.27
2023-01-19T16:41:27.057Z,11.27
2023-01-19T16:43:55.545Z,13.40
2023-01-19T16:46:25.635Z,10.75
2023-01-19T16:48:53.136Z,14.00
2023-01-19T16:51:22.510Z,14.73
2023-01-19T16:53:52.398Z,11.93
2023-01-19T16:56:19.419Z,14.32
2023-01-19T16:58:46.339Z,17.20
2023-01-19T17:01:17.759Z,14.63
2023-01-19T17:03:46.284Z,18.30
2023-01-19T17:06:15.356Z,14.00
2023-01-19T17:08:42.077Z,17.88
2023-01-19T17:11:12.894Z,14.05
2023-01-19T17:13:42.311Z,14.13
2023-01-19T17:16:09.648Z,14.98
2023-01-19T17:18:37.964Z,19.67
2023-01-19T17:21:07.636Z,13.63
2023-01-19T17:23:36.281Z,15.10
2023-01-19T17:26:04.423Z,15.25
2023-01-19T17:28:31.306Z,13.65
2023-01-19T17:31:14.250Z,14.35
2023-01-19T17:33:46.425Z,13.77
2023-01-19T17:36:15.690Z,16.52
2023-01-19T17:38:42.506Z,16.17
2023-01-19T17:41:14.216Z,13.57
2023-01-19T17:43:41.267Z,14.55
2023-01-19T17:46:08.579Z,16.63
2023-01-19T17:48:35.315Z,14.50
2023-01-19T17:51:08.319Z,16.40
2023-01-19T17:53:36.956Z,17.95
2023-01-19T17:56:05.610Z,17.92
2023-01-19T17:58:34.201Z,15.32
2023-01-19T18:01:12.452Z,13.93
2023-01-19T18:03:42.186Z,14.18
2023-01-19T18:06:09.814Z,13.63
2023-01-19T18:08:40.555Z,13.88
2023-01-19T18:11:07.891Z,13.43
2023-01-19T18:13:37.828Z,15.40
2023-01-19T18:16:07.846Z,13.80
2023-01-19T18:18:35.334Z,14.18
2023-01-19T18:21:04.319Z,16.02
2023-01-19T18:23:31.223Z,20.33
2023-01-19T18:26:02.889Z,18.95
2023-01-19T18:28:30.544Z,14.93
2023-01-19T18:30:57.712Z,15.20
2023-01-19T18:33:25.076Z,15.40
2023-01-19T18:35:52.144Z,14.05
2023-01-19T18:38:18.972Z,18.83
2023-01-19T18:40:46.562Z,16.35
2023-01-19T18:43:13.716Z,18.33
2023-01-19T18:45:41.982Z,13.93
2023-01-19T18:48:11.373Z,16.27
2023-01-19T18:50:38.412Z,17.33
2023-01-19T18:53:05.607Z,17.33
2023-01-19T18:55:36.255Z,16.50
2023-01-19T18:58:05.320Z,14.38
2023-01-19T19:00:34.660Z,14.10
2023-01-19T19:03:01.495Z,14.20
2023-01-19T19:05:33.023Z,14.15
2023-01-19T19:07:59.746Z,13.70
2023-01-19T19:10:26.464Z,14.85
2023-01-19T19:12:55.281Z,16.45
2023-01-19T19:15:22.200Z,15.77
2023-01-19T19:17:51.385Z,13.38
2023-01-19T19:20:23.385Z,15.30
2023-01-19T19:22:52.690Z,13.32
2023-01-19T19:25:21.777Z,14.93
2023-01-19T19:27:52.148Z,17.88
2023-01-19T19:30:20.754Z,14.50
2023-01-19T19:32:57.255Z,19.77
2023-01-19T19:35:24.467Z,20.42
2023-01-19T19:37:51.615Z,17.35
2023-01-19T19:40:18.616Z,12.95
2023-01-19T19:42:45.380Z,13.50
2023-01-19T19:45:12.513Z,16.95
2023-01-19T19:47:42.979Z,14.15
2023-01-19T19:50:11.572Z,15.85
2023-01-19T19:52:41.909Z,13.63
2023-01-19T19:55:10.165Z,16.30
2023-01-19T19:57:37.251Z,13.27
2023-01-19T20:00:07.756Z,16.23
2023-01-19T20:02:34.470Z,16.73
2023-01-19T20:05:03.803Z,14.48
2023-01-19T20:07:30.535Z,13.75
2023-01-19T20:09:57.371Z,13.13
2023-01-19T20:12:24.127Z,18.40
2023-01-19T20:14:50.834Z,18.65
2023-01-19T20:17:18.004Z,14.57
2023-01-19T20:19:48.945Z,15.23
2023-01-19T20:22:16.124Z,14.48
2023-01-19T20:24:42.874Z,17.02
2023-01-19T20:27:09.564Z,17.58
2023-01-19T20:29:36.246Z,11.63
2023-01-19T20:32:05.496Z,17.48
2023-01-19T20:34:35.624Z,18.27
2023-01-19T20:37:04.628Z,13.63
2023-01-19T20:39:33.421Z,14.48
2023-01-19T20:42:02.902Z,13.18
2023-01-19T20:44:30.271Z,13.02
2023-01-19T20:46:59.512Z,11.40
2023-01-19T20:49:26.384Z,11.55
2023-01-19T20:51:53.541Z,13.52
2023-01-19T20:54:24.487Z,13.23
2023-01-19T20:56:51.300Z,14.07
2023-01-19T20:59:18.475Z,9.52
2023-01-19T21:01:48.454Z,12.13
2023-01-19T21:04:19.806Z,14.07
2023-01-19T21:06:46.700Z,11.75
2023-01-19T21:09:13.489Z,12.50
2023-01-19T21:11:42.627Z,10.45
2023-01-19T21:14:09.628Z,12.75
2023-01-19T21:16:36.791Z,12.27
2023-01-19T21:19:04.639Z,10.23
2023-01-19T21:21:32.103Z,16.52
2023-01-19T21:24:03.401Z,11.02
2023-01-19T21:26:30.464Z,10.32
2023-01-19T21:28:58.659Z,12.82
2023-01-19T21:31:27.750Z,13.10
2023-01-19T21:33:55.200Z,15.45
2023-01-19T21:36:22.579Z,13.23
2023-01-19T21:39:00.354Z,9.48
2023-01-19T21:41:35.896Z,12.30
2023-01-19T21:44:02.899Z,12.65
2023-01-19T21:46:33.520Z,9.27
2023-01-19T21:49:02.535Z,10.65
2023-01-19T21:51:33.342Z,11.13
2023-01-19T21:54:02.524Z,13.45
2023-01-19T21:56:30.765Z,10.05
2023-01-19T21:58:58.211Z,13.88
2023-01-19T22:01:25.135Z,11.20
2023-01-19T22:03:56.808Z,15.13
2023-01-19T22:06:26.654Z,12.30
2023-01-19T22:08:54.359Z,12.63
2023-01-19T22:11:21.644Z,10.65
2023-01-19T22:13:48.660Z,12.30
2023-01-19T22:16:17.895Z,8.88
2023-01-19T22:18:49.139Z,12.43
2023-01-19T22:21:18.308Z,8.05
2023-01-19T22:23:53.232Z,13.45
2023-01-19T22:26:19.957Z,11.45
2023-01-19T22:28:47.033Z,10.20
2023-01-19T22:31:18.490Z,11.90
2023-01-19T22:33:49.008Z,10.77
2023-01-19T22:36:17.243Z,10.70
2023-01-19T22:38:47.225Z,11.68
2023-01-19T22:41:19.661Z,14.93
2023-01-19T22:43:52.679Z,9.30
2023-01-19T22:46:26.715Z,9.40
2023-01-19T22:48:56.793Z,11.02
2023-01-19T22:51:24.844Z,11.85
2023-01-19T22:53:51.987Z,11.70
2023-01-19T22:56:29.452Z,13.98
2023-01-19T22:58:57.125Z,13.65
2023-01-19T23:01:35.662Z,14.05
2023-01-19T23:04:06.730Z,12.20
2023-01-19T23:06:36.438Z,10.95
2023-01-19T23:09:06.595Z,11.80
2023-01-19T23:11:39.243Z,13.73
2023-01-19T23:14:09.592Z,17.02
2023-01-19T23:16:36.586Z,10.27
2023-01-19T23:19:04.274Z,13.82
2023-01-19T23:21:32.472Z,12.45
2023-01-19T23:24:01.235Z,15.73
2023-01-19T23:26:28.892Z,12.55
2023-01-19T23:28:57.865Z,13.35
2023-01-19T23:31:27.270Z,10.10
2023-01-19T23:33:59.826Z,14.13
2023-01-19T23:36:28.911Z,16.15
2023-01-19T23:39:00.939Z,13.07
2023-01-19T23:41:30.239Z,11.50
2023-01-19T23:43:56.982Z,11.18
2023-01-19T23:46:23.858Z,13.48
2023-01-19T23:48:50.809Z,13.52
2023-01-19T23:51:26.313Z,13.07
2023-01-19T23:53:53.552Z,14.45
2023-01-19T23:56:23.059Z,22.08
2023-01-19T23:59:01.700Z,14.90
